sensor_id;sensor_type;location;lat;lon;timestamp;P1;durP1;ratioP1;P2;durP2;ratioP2
3995;SDS011;2012;49.794;9.722;2023-02-11T00:00:20;40.70;;;24.13;;
3995;SDS011;2012;49.794;9.722;2023-02-11T00:02:47;42.93;;;23.20;;
3995;SDS011;2012;49.794;9.722;2023-02-11T00:05:14;46.80;;;26.87;;
3995;SDS011;2012;49.794;9.722;2023-02-11T00:07:41;49.70;;;28.70;;
3995;SDS011;2012;49.794;9.722;2023-02-11T00:10:08;51.50;;;28.80;;
3995;SDS011;2012;49.794;9.722;2023-02-11T00:12:35;50.40;;;28.57;;
3995;SDS011;2012;49.794;9.722;2023-02-11T00:15:03;50.93;;;27.27;;
3995;SDS011;2012;49.794;9.722;2023-02-11T00:17:31;51.13;;;27.80;;
3995;SDS011;2012;49.794;9.722;2023-02-11T00:19:58;55.63;;;28.93;;
3995;SDS011;2012;49.794;9.722;2023-02-11T00:22:25;52.80;;;27.63;;
3995;SDS011;2012;49.794;9.722;2023-02-11T00:24:51;59.30;;;28.27;;
3995;SDS011;2012;49.794;9.722;2023-02-11T00:27:18;53.23;;;28.90;;
3995;SDS011;2012;49.794;9.722;2023-02-11T00:29:45;66.80;;;33.13;;
3995;SDS011;2012;49.794;9.722;2023-02-11T00:32:12;59.20;;;29.87;;
3995;SDS011;2012;49.794;9.722;2023-02-11T00:34:38;57.47;;;28.17;;
3995;SDS011;2012;49.794;9.722;2023-02-11T00:37:05;57.17;;;30.23;;
3995;SDS011;2012;49.794;9.722;2023-02-11T00:39:32;59.50;;;32.80;;
3995;SDS011;2012;49.794;9.722;2023-02-11T00:41:58;52.57;;;29.27;;
3995;SDS011;2012;49.794;9.722;2023-02-11T00:44:25;54.67;;;29.40;;
3995;SDS011;2012;49.794;9.722;2023-02-11T00:46:52;56.83;;;28.70;;
3995;SDS011;2012;49.794;9.722;2023-02-11T00:49:18;50.47;;;27.40;;
3995;SDS011;2012;49.794;9.722;2023-02-11T00:51:45;52.53;;;25.87;;
3995;SDS011;2012;49.794;9.722;2023-02-11T00:54:12;49.20;;;27.10;;
3995;SDS011;2012;49.794;9.722;2023-02-11T00:56:39;53.77;;;29.33;;
3995;SDS011;2012;49.794;9.722;2023-02-11T00:59:05;51.30;;;27.53;;
3995;SDS011;2012;49.794;9.722;2023-02-11T01:01:32;57.13;;;28.50;;
3995;SDS011;2012;49.794;9.722;2023-02-11T01:03:59;54.20;;;29.67;;
3995;SDS011;2012;49.794;9.722;2023-02-11T01:06:26;50.77;;;27.40;;
3995;SDS011;2012;49.794;9.722;2023-02-11T01:08:53;56.47;;;28.03;;
3995;SDS011;2012;49.794;9.722;2023-02-11T01:11:20;53.73;;;28.57;;
3995;SDS011;2012;49.794;9.722;2023-02-11T01:13:47;49.37;;;26.40;;
3995;SDS011;2012;49.794;9.722;2023-02-11T01:16:15;56.70;;;27.13;;
3995;SDS011;2012;49.794;9.722;2023-02-11T01:18:42;54.10;;;26.63;;
3995;SDS011;2012;49.794;9.722;2023-02-11T01:21:09;46.47;;;25.50;;
3995;SDS011;2012;49.794;9.722;2023-02-11T01:23:37;44.03;;;24.57;;
3995;SDS011;2012;49.794;9.722;2023-02-11T01:26:04;48.60;;;25.50;;
3995;SDS011;2012;49.794;9.722;2023-02-11T01:28:31;44.20;;;24.20;;
3995;SDS011;2012;49.794;9.722;2023-02-11T01:30:59;47.53;;;25.30;;
3995;SDS011;2012;49.794;9.722;2023-02-11T01:33:27;38.73;;;21.80;;
3995;SDS011;2012;49.794;9.722;2023-02-11T01:35:58;43.10;;;23.70;;
3995;SDS011;2012;49.794;9.722;2023-02-11T01:38:26;40.90;;;23.50;;
3995;SDS011;2012;49.794;9.722;2023-02-11T01:40:54;47.83;;;25.50;;
3995;SDS011;2012;49.794;9.722;2023-02-11T01:43:28;43.60;;;23.90;;
3995;SDS011;2012;49.794;9.722;2023-02-11T01:49:10;37.63;;;22.17;;
3995;SDS011;2012;49.794;9.722;2023-02-11T01:51:53;36.60;;;20.73;;
3995;SDS011;2012;49.794;9.722;2023-02-11T01:54:21;32.70;;;21.00;;
3995;SDS011;2012;49.794;9.722;2023-02-11T01:57:11;44.10;;;23.70;;
3995;SDS011;2012;49.794;9.722;2023-02-11T02:08:16;40.83;;;22.87;;
3995;SDS011;2012;49.794;9.722;2023-02-11T02:10:54;31.80;;;18.43;;
3995;SDS011;2012;49.794;9.722;2023-02-11T02:13:24;31.30;;;17.63;;
3995;SDS011;2012;49.794;9.722;2023-02-11T02:18:30;27.40;;;16.77;;
3995;SDS011;2012;49.794;9.722;2023-02-11T02:24:20;29.13;;;16.50;;
3995;SDS011;2012;49.794;9.722;2023-02-11T02:27:17;24.30;;;15.73;;
3995;SDS011;2012;49.794;9.722;2023-02-11T02:32:34;24.03;;;15.20;;
3995;SDS011;2012;49.794;9.722;2023-02-11T02:38:15;25.93;;;14.87;;
3995;SDS011;2012;49.794;9.722;2023-02-11T02:41:08;25.37;;;14.40;;
3995;SDS011;2012;49.794;9.722;2023-02-11T02:43:41;27.97;;;15.93;;
3995;SDS011;2012;49.794;9.722;2023-02-11T02:46:29;23.20;;;14.77;;
3995;SDS011;2012;49.794;9.722;2023-02-11T02:48:59;25.47;;;13.83;;
3995;SDS011;2012;49.794;9.722;2023-02-11T02:54:52;28.50;;;15.87;;
3995;SDS011;2012;49.794;9.722;2023-02-11T03:03:25;28.57;;;15.23;;
3995;SDS011;2012;49.794;9.722;2023-02-11T03:06:06;28.37;;;14.80;;
3995;SDS011;2012;49.794;9.722;2023-02-11T03:08:42;27.53;;;15.10;;
3995;SDS011;2012;49.794;9.722;2023-02-11T03:11:14;22.57;;;13.17;;
3995;SDS011;2012;49.794;9.722;2023-02-11T03:13:43;21.80;;;12.40;;
3995;SDS011;2012;49.794;9.722;2023-02-11T03:16:20;24.77;;;15.57;;
3995;SDS011;2012;49.794;9.722;2023-02-11T03:18:58;28.23;;;14.87;;
3995;SDS011;2012;49.794;9.722;2023-02-11T03:21:30;25.63;;;14.77;;
3995;SDS011;2012;49.794;9.722;2023-02-11T03:24:02;24.10;;;15.53;;
3995;SDS011;2012;49.794;9.722;2023-02-11T03:26:35;23.93;;;15.30;;
3995;SDS011;2012;49.794;9.722;2023-02-11T03:29:09;23.43;;;14.07;;
3995;SDS011;2012;49.794;9.722;2023-02-11T03:31:41;24.70;;;14.50;;
3995;SDS011;2012;49.794;9.722;2023-02-11T03:34:39;23.67;;;13.90;;
3995;SDS011;2012;49.794;9.722;2023-02-11T03:37:09;25.80;;;15.07;;
3995;SDS011;2012;49.794;9.722;2023-02-11T03:39:45;20.77;;;13.33;;
3995;SDS011;2012;49.794;9.722;2023-02-11T03:42:18;28.17;;;15.00;;
3995;SDS011;2012;49.794;9.722;2023-02-11T03:44:51;24.57;;;13.07;;
3995;SDS011;2012;49.794;9.722;2023-02-11T03:47:23;22.33;;;13.67;;
3995;SDS011;2012;49.794;9.722;2023-02-11T03:49:53;28.33;;;15.43;;
3995;SDS011;2012;49.794;9.722;2023-02-11T03:52:23;22.07;;;15.00;;
3995;SDS011;2012;49.794;9.722;2023-02-11T03:54:52;23.80;;;12.63;;
3995;SDS011;2012;49.794;9.722;2023-02-11T03:57:22;23.90;;;13.67;;
3995;SDS011;2012;49.794;9.722;2023-02-11T03:59:53;20.00;;;12.47;;
3995;SDS011;2012;49.794;9.722;2023-02-11T04:02:27;25.50;;;14.50;;
3995;SDS011;2012;49.794;9.722;2023-02-11T04:04:56;21.33;;;14.20;;
3995;SDS011;2012;49.794;9.722;2023-02-11T04:07:23;25.30;;;14.60;;
3995;SDS011;2012;49.794;9.722;2023-02-11T04:09:51;19.80;;;12.53;;
3995;SDS011;2012;49.794;9.722;2023-02-11T04:12:18;20.57;;;13.47;;
3995;SDS011;2012;49.794;9.722;2023-02-11T04:14:45;27.67;;;13.03;;
3995;SDS011;2012;49.794;9.722;2023-02-11T04:17:11;27.50;;;14.83;;
3995;SDS011;2012;49.794;9.722;2023-02-11T04:19:38;27.53;;;14.60;;
3995;SDS011;2012;49.794;9.722;2023-02-11T04:22:05;20.83;;;13.53;;
3995;SDS011;2012;49.794;9.722;2023-02-11T04:24:32;19.63;;;12.00;;
3995;SDS011;2012;49.794;9.722;2023-02-11T04:26:59;35.43;;;15.23;;
3995;SDS011;2012;49.794;9.722;2023-02-11T04:29:26;20.97;;;13.20;;
3995;SDS011;2012;49.794;9.722;2023-02-11T04:31:53;22.20;;;14.00;;
3995;SDS011;2012;49.794;9.722;2023-02-11T04:34:20;26.20;;;15.10;;
3995;SDS011;2012;49.794;9.722;2023-02-11T04:36:47;24.23;;;14.20;;
3995;SDS011;2012;49.794;9.722;2023-02-11T04:39:14;31.10;;;17.40;;
3995;SDS011;2012;49.794;9.722;2023-02-11T04:41:41;28.93;;;16.77;;
3995;SDS011;2012;49.794;9.722;2023-02-11T04:44:08;28.83;;;15.80;;
3995;SDS011;2012;49.794;9.722;2023-02-11T04:46:35;27.10;;;15.10;;
3995;SDS011;2012;49.794;9.722;2023-02-11T04:49:02;25.13;;;15.40;;
3995;SDS011;2012;49.794;9.722;2023-02-11T04:51:29;28.33;;;16.10;;
3995;SDS011;2012;49.794;9.722;2023-02-11T04:53:55;25.17;;;16.00;;
3995;SDS011;2012;49.794;9.722;2023-02-11T04:56:22;26.10;;;14.60;;
3995;SDS011;2012;49.794;9.722;2023-02-11T04:58:49;24.63;;;14.30;;
3995;SDS011;2012;49.794;9.722;2023-02-11T05:01:15;35.80;;;16.60;;
3995;SDS011;2012;49.794;9.722;2023-02-11T05:03:42;31.07;;;18.20;;
3995;SDS011;2012;49.794;9.722;2023-02-11T05:06:09;38.57;;;19.47;;
3995;SDS011;2012;49.794;9.722;2023-02-11T05:08:36;32.93;;;18.80;;
3995;SDS011;2012;49.794;9.722;2023-02-11T05:11:03;28.70;;;17.73;;
3995;SDS011;2012;49.794;9.722;2023-02-11T05:13:30;27.83;;;17.00;;
3995;SDS011;2012;49.794;9.722;2023-02-11T05:15:57;26.47;;;15.20;;
3995;SDS011;2012;49.794;9.722;2023-02-11T05:18:24;28.90;;;17.10;;
3995;SDS011;2012;49.794;9.722;2023-02-11T05:20:51;31.20;;;16.40;;
3995;SDS011;2012;49.794;9.722;2023-02-11T05:23:18;26.77;;;16.20;;
3995;SDS011;2012;49.794;9.722;2023-02-11T05:25:44;23.37;;;15.60;;
3995;SDS011;2012;49.794;9.722;2023-02-11T05:28:11;31.43;;;18.70;;
3995;SDS011;2012;49.794;9.722;2023-02-11T05:30:38;27.87;;;18.27;;
3995;SDS011;2012;49.794;9.722;2023-02-11T05:33:05;26.33;;;15.70;;
3995;SDS011;2012;49.794;9.722;2023-02-11T05:35:32;29.50;;;16.70;;
3995;SDS011;2012;49.794;9.722;2023-02-11T05:37:59;35.63;;;20.53;;
3995;SDS011;2012;49.794;9.722;2023-02-11T05:40:25;38.13;;;18.20;;
3995;SDS011;2012;49.794;9.722;2023-02-11T05:42:52;31.77;;;17.77;;
3995;SDS011;2012;49.794;9.722;2023-02-11T05:45:19;30.60;;;17.73;;
3995;SDS011;2012;49.794;9.722;2023-02-11T05:47:46;34.40;;;18.70;;
3995;SDS011;2012;49.794;9.722;2023-02-11T05:50:12;32.80;;;18.00;;
3995;SDS011;2012;49.794;9.722;2023-02-11T05:52:39;30.27;;;18.37;;
3995;SDS011;2012;49.794;9.722;2023-02-11T05:55:06;37.40;;;20.20;;
3995;SDS011;2012;49.794;9.722;2023-02-11T05:57:33;29.77;;;18.10;;
3995;SDS011;2012;49.794;9.722;2023-02-11T06:00:00;33.17;;;18.37;;
3995;SDS011;2012;49.794;9.722;2023-02-11T06:02:27;41.93;;;22.73;;
3995;SDS011;2012;49.794;9.722;2023-02-11T06:04:54;39.27;;;18.10;;
3995;SDS011;2012;49.794;9.722;2023-02-11T06:07:20;31.60;;;18.53;;
3995;SDS011;2012;49.794;9.722;2023-02-11T06:09:47;75.23;;;30.03;;
3995;SDS011;2012;49.794;9.722;2023-02-11T06:12:14;57.13;;;24.90;;
3995;SDS011;2012;49.794;9.722;2023-02-11T06:14:40;54.57;;;24.27;;
3995;SDS011;2012;49.794;9.722;2023-02-11T06:17:07;46.47;;;22.30;;
3995;SDS011;2012;49.794;9.722;2023-02-11T06:19:34;40.93;;;20.67;;
3995;SDS011;2012;49.794;9.722;2023-02-11T06:22:01;34.03;;;19.97;;
3995;SDS011;2012;49.794;9.722;2023-02-11T06:24:28;37.83;;;19.77;;
3995;SDS011;2012;49.794;9.722;2023-02-11T06:27:14;30.33;;;17.80;;
3995;SDS011;2012;49.794;9.722;2023-02-11T06:29:41;34.87;;;19.07;;
3995;SDS011;2012;49.794;9.722;2023-02-11T06:32:08;30.63;;;18.07;;
3995;SDS011;2012;49.794;9.722;2023-02-11T06:34:54;30.83;;;18.80;;
3995;SDS011;2012;49.794;9.722;2023-02-11T06:37:21;29.97;;;19.80;;
3995;SDS011;2012;49.794;9.722;2023-02-11T06:39:48;30.50;;;19.50;;
3995;SDS011;2012;49.794;9.722;2023-02-11T06:42:15;34.20;;;20.33;;
3995;SDS011;2012;49.794;9.722;2023-02-11T06:44:41;33.03;;;19.20;;
3995;SDS011;2012;49.794;9.722;2023-02-11T06:47:09;35.80;;;20.90;;
3995;SDS011;2012;49.794;9.722;2023-02-11T06:49:36;31.07;;;18.47;;
3995;SDS011;2012;49.794;9.722;2023-02-11T06:52:03;32.83;;;17.57;;
3995;SDS011;2012;49.794;9.722;2023-02-11T06:54:29;34.20;;;20.13;;
3995;SDS011;2012;49.794;9.722;2023-02-11T06:56:56;41.50;;;21.10;;
3995;SDS011;2012;49.794;9.722;2023-02-11T06:59:23;31.80;;;19.90;;
3995;SDS011;2012;49.794;9.722;2023-02-11T07:01:50;37.97;;;20.07;;
3995;SDS011;2012;49.794;9.722;2023-02-11T07:04:16;40.03;;;21.07;;
3995;SDS011;2012;49.794;9.722;2023-02-11T07:06:44;35.77;;;20.60;;
3995;SDS011;2012;49.794;9.722;2023-02-11T07:09:11;37.00;;;20.20;;
3995;SDS011;2012;49.794;9.722;2023-02-11T07:11:37;33.20;;;21.00;;
3995;SDS011;2012;49.794;9.722;2023-02-11T07:14:05;36.67;;;19.87;;
3995;SDS011;2012;49.794;9.722;2023-02-11T07:16:37;33.70;;;19.57;;
3995;SDS011;2012;49.794;9.722;2023-02-11T07:19:04;37.90;;;20.47;;
3995;SDS011;2012;49.794;9.722;2023-02-11T07:21:31;33.77;;;20.20;;
3995;SDS011;2012;49.794;9.722;2023-02-11T07:23:57;32.37;;;19.63;;
3995;SDS011;2012;49.794;9.722;2023-02-11T07:26:24;35.03;;;19.03;;
3995;SDS011;2012;49.794;9.722;2023-02-11T07:28:51;33.07;;;19.50;;
3995;SDS011;2012;49.794;9.722;2023-02-11T07:31:20;31.30;;;18.40;;
3995;SDS011;2012;49.794;9.722;2023-02-11T07:33:50;34.93;;;19.80;;
3995;SDS011;2012;49.794;9.722;2023-02-11T07:36:17;39.50;;;21.27;;
3995;SDS011;2012;49.794;9.722;2023-02-11T07:38:44;34.33;;;20.00;;
3995;SDS011;2012;49.794;9.722;2023-02-11T07:41:13;33.87;;;19.80;;
3995;SDS011;2012;49.794;9.722;2023-02-11T07:43:43;35.53;;;20.17;;
3995;SDS011;2012;49.794;9.722;2023-02-11T07:46:14;33.30;;;19.63;;
3995;SDS011;2012;49.794;9.722;2023-02-11T07:48:46;30.17;;;19.27;;
3995;SDS011;2012;49.794;9.722;2023-02-11T07:51:14;35.90;;;19.23;;
3995;SDS011;2012;49.794;9.722;2023-02-11T07:53:43;34.03;;;20.83;;
3995;SDS011;2012;49.794;9.722;2023-02-11T07:56:11;37.63;;;21.03;;
3995;SDS011;2012;49.794;9.722;2023-02-11T07:58:39;36.40;;;20.10;;
3995;SDS011;2012;49.794;9.722;2023-02-11T08:01:08;35.87;;;20.53;;
3995;SDS011;2012;49.794;9.722;2023-02-11T08:03:43;31.13;;;17.67;;
3995;SDS011;2012;49.794;9.722;2023-02-11T08:06:11;29.67;;;18.10;;
3995;SDS011;2012;49.794;9.722;2023-02-11T08:08:42;27.43;;;18.47;;
3995;SDS011;2012;49.794;9.722;2023-02-11T08:11:14;30.67;;;18.53;;
3995;SDS011;2012;49.794;9.722;2023-02-11T08:13:42;38.23;;;21.03;;
3995;SDS011;2012;49.794;9.722;2023-02-11T08:16:43;32.13;;;20.10;;
3995;SDS011;2012;49.794;9.722;2023-02-11T08:19:06;39.23;;;21.30;;
3995;SDS011;2012;49.794;9.722;2023-02-11T08:21:36;33.27;;;19.40;;
3995;SDS011;2012;49.794;9.722;2023-02-11T08:24:04;33.47;;;20.10;;
3995;SDS011;2012;49.794;9.722;2023-02-11T08:26:32;36.00;;;21.20;;
3995;SDS011;2012;49.794;9.722;2023-02-11T08:29:00;35.27;;;20.40;;
3995;SDS011;2012;49.794;9.722;2023-02-11T08:31:34;31.40;;;19.40;;
3995;SDS011;2012;49.794;9.722;2023-02-11T08:34:03;38.07;;;20.17;;
3995;SDS011;2012;49.794;9.722;2023-02-11T08:36:31;28.90;;;18.07;;
3995;SDS011;2012;49.794;9.722;2023-02-11T08:39:02;29.73;;;18.87;;
3995;SDS011;2012;49.794;9.722;2023-02-11T08:41:44;26.77;;;17.77;;
3995;SDS011;2012;49.794;9.722;2023-02-11T08:44:16;31.97;;;19.27;;
3995;SDS011;2012;49.794;9.722;2023-02-11T08:46:44;31.20;;;18.50;;
3995;SDS011;2012;49.794;9.722;2023-02-11T08:49:12;32.40;;;19.37;;
3995;SDS011;2012;49.794;9.722;2023-02-11T08:51:39;31.77;;;17.57;;
3995;SDS011;2012;49.794;9.722;2023-02-11T08:54:06;36.77;;;20.87;;
3995;SDS011;2012;49.794;9.722;2023-02-11T08:56:35;36.13;;;19.17;;
3995;SDS011;2012;49.794;9.722;2023-02-11T08:59:03;34.97;;;19.20;;
3995;SDS011;2012;49.794;9.722;2023-02-11T09:01:30;37.03;;;19.10;;
3995;SDS011;2012;49.794;9.722;2023-02-11T09:03:58;28.33;;;17.73;;
3995;SDS011;2012;49.794;9.722;2023-02-11T09:06:26;35.10;;;19.17;;
3995;SDS011;2012;49.794;9.722;2023-02-11T09:08:54;33.33;;;20.17;;
3995;SDS011;2012;49.794;9.722;2023-02-11T09:11:29;29.83;;;18.63;;
3995;SDS011;2012;49.794;9.722;2023-02-11T09:13:58;26.97;;;16.90;;
3995;SDS011;2012;49.794;9.722;2023-02-11T09:16:27;32.70;;;18.30;;
3995;SDS011;2012;49.794;9.722;2023-02-11T09:18:56;27.67;;;19.40;;
3995;SDS011;2012;49.794;9.722;2023-02-11T09:21:23;38.77;;;20.20;;
3995;SDS011;2012;49.794;9.722;2023-02-11T09:23:50;29.67;;;18.03;;
3995;SDS011;2012;49.794;9.722;2023-02-11T09:26:18;30.53;;;17.13;;
3995;SDS011;2012;49.794;9.722;2023-02-11T09:28:47;27.33;;;16.80;;
3995;SDS011;2012;49.794;9.722;2023-02-11T09:31:16;30.97;;;19.47;;
3995;SDS011;2012;49.794;9.722;2023-02-11T09:33:47;27.97;;;17.33;;
3995;SDS011;2012;49.794;9.722;2023-02-11T09:36:16;25.67;;;17.70;;
3995;SDS011;2012;49.794;9.722;2023-02-11T09:38:45;29.03;;;16.27;;
3995;SDS011;2012;49.794;9.722;2023-02-11T09:41:32;30.97;;;18.13;;
3995;SDS011;2012;49.794;9.722;2023-02-11T09:44:28;30.37;;;18.07;;
3995;SDS011;2012;49.794;9.722;2023-02-11T09:46:59;34.03;;;18.27;;
3995;SDS011;2012;49.794;9.722;2023-02-11T09:49:37;30.93;;;17.93;;
3995;SDS011;2012;49.794;9.722;2023-02-11T09:52:29;34.10;;;17.60;;
3995;SDS011;2012;49.794;9.722;2023-02-11T09:55:16;29.00;;;17.60;;
3995;SDS011;2012;49.794;9.722;2023-02-11T09:57:52;33.97;;;20.10;;
3995;SDS011;2012;49.794;9.722;2023-02-11T10:00:27;40.27;;;18.87;;
3995;SDS011;2012;49.794;9.722;2023-02-11T10:08:58;32.50;;;18.00;;
3995;SDS011;2012;49.794;9.722;2023-02-11T10:16:44;27.70;;;17.23;;
3995;SDS011;2012;49.794;9.722;2023-02-11T10:19:45;30.83;;;19.27;;
3995;SDS011;2012;49.794;9.722;2023-02-11T10:22:29;35.20;;;20.07;;
3995;SDS011;2012;49.794;9.722;2023-02-11T10:24:58;38.90;;;20.20;;
3995;SDS011;2012;49.794;9.722;2023-02-11T10:27:32;30.20;;;17.13;;
3995;SDS011;2012;49.794;9.722;2023-02-11T10:35:42;32.63;;;18.93;;
3995;SDS011;2012;49.794;9.722;2023-02-11T10:38:11;31.97;;;18.47;;
3995;SDS011;2012;49.794;9.722;2023-02-11T10:40:38;35.20;;;19.43;;
3995;SDS011;2012;49.794;9.722;2023-02-11T10:43:05;37.23;;;20.30;;
3995;SDS011;2012;49.794;9.722;2023-02-11T10:48:34;32.07;;;17.87;;
3995;SDS011;2012;49.794;9.722;2023-02-11T10:51:13;33.37;;;19.57;;
3995;SDS011;2012;49.794;9.722;2023-02-11T10:53:40;32.70;;;19.83;;
3995;SDS011;2012;49.794;9.722;2023-02-11T10:56:09;34.73;;;19.83;;
3995;SDS011;2012;49.794;9.722;2023-02-11T10:58:40;33.03;;;20.07;;
3995;SDS011;2012;49.794;9.722;2023-02-11T11:01:11;31.67;;;18.97;;
3995;SDS011;2012;49.794;9.722;2023-02-11T11:03:50;35.67;;;19.50;;
3995;SDS011;2012;49.794;9.722;2023-02-11T11:06:27;29.77;;;17.60;;
3995;SDS011;2012;49.794;9.722;2023-02-11T11:08:56;34.30;;;20.23;;
3995;SDS011;2012;49.794;9.722;2023-02-11T11:11:24;27.53;;;18.33;;
3995;SDS011;2012;49.794;9.722;2023-02-11T11:18:53;31.60;;;20.10;;
3995;SDS011;2012;49.794;9.722;2023-02-11T11:21:49;35.93;;;18.23;;
3995;SDS011;2012;49.794;9.722;2023-02-11T11:26:56;37.33;;;22.63;;
3995;SDS011;2012;49.794;9.722;2023-02-11T11:29:36;30.43;;;18.30;;
3995;SDS011;2012;49.794;9.722;2023-02-11T11:32:19;29.13;;;17.90;;
3995;SDS011;2012;49.794;9.722;2023-02-11T11:34:56;33.67;;;18.43;;
3995;SDS011;2012;49.794;9.722;2023-02-11T11:37:29;33.13;;;19.77;;
3995;SDS011;2012;49.794;9.722;2023-02-11T11:40:01;34.37;;;19.87;;
3995;SDS011;2012;49.794;9.722;2023-02-11T11:42:37;32.60;;;19.40;;
3995;SDS011;2012;49.794;9.722;2023-02-11T11:47:42;34.37;;;20.40;;
3995;SDS011;2012;49.794;9.722;2023-02-11T11:50:13;34.33;;;20.70;;
3995;SDS011;2012;49.794;9.722;2023-02-11T11:55:42;34.93;;;20.47;;
3995;SDS011;2012;49.794;9.722;2023-02-11T11:58:14;35.33;;;20.17;;
3995;SDS011;2012;49.794;9.722;2023-02-11T12:00:55;29.20;;;18.50;;
3995;SDS011;2012;49.794;9.722;2023-02-11T12:06:40;27.27;;;17.93;;
3995;SDS011;2012;49.794;9.722;2023-02-11T12:12:39;36.53;;;21.87;;
3995;SDS011;2012;49.794;9.722;2023-02-11T12:18:26;34.13;;;19.50;;
3995;SDS011;2012;49.794;9.722;2023-02-11T12:21:17;32.87;;;20.60;;
3995;SDS011;2012;49.794;9.722;2023-02-11T12:24:39;35.07;;;21.70;;
3995;SDS011;2012;49.794;9.722;2023-02-11T12:32:27;41.20;;;20.90;;
3995;SDS011;2012;49.794;9.722;2023-02-11T12:49:17;36.30;;;20.90;;
3995;SDS011;2012;49.794;9.722;2023-02-11T12:52:23;38.37;;;20.50;;
3995;SDS011;2012;49.794;9.722;2023-02-11T12:55:03;36.83;;;19.47;;
3995;SDS011;2012;49.794;9.722;2023-02-11T12:57:55;35.20;;;19.50;;
3995;SDS011;2012;49.794;9.722;2023-02-11T13:00:26;35.30;;;20.97;;
3995;SDS011;2012;49.794;9.722;2023-02-11T13:08:22;32.50;;;19.20;;
3995;SDS011;2012;49.794;9.722;2023-02-11T13:11:01;33.17;;;19.37;;
3995;SDS011;2012;49.794;9.722;2023-02-11T13:13:55;33.13;;;18.73;;
3995;SDS011;2012;49.794;9.722;2023-02-11T13:17:03;34.17;;;20.30;;
3995;SDS011;2012;49.794;9.722;2023-02-11T13:19:25;29.93;;;17.77;;
3995;SDS011;2012;49.794;9.722;2023-02-11T13:22:14;30.87;;;19.23;;
3995;SDS011;2012;49.794;9.722;2023-02-11T13:24:53;29.60;;;16.93;;
3995;SDS011;2012;49.794;9.722;2023-02-11T13:30:31;28.80;;;17.80;;
3995;SDS011;2012;49.794;9.722;2023-02-11T13:33:04;29.13;;;18.40;;
3995;SDS011;2012;49.794;9.722;2023-02-11T13:36:09;36.70;;;17.60;;
3995;SDS011;2012;49.794;9.722;2023-02-11T13:38:37;29.70;;;17.73;;
3995;SDS011;2012;49.794;9.722;2023-02-11T13:41:18;29.00;;;18.40;;
3995;SDS011;2012;49.794;9.722;2023-02-11T13:49:37;32.43;;;19.07;;
3995;SDS011;2012;49.794;9.722;2023-02-11T13:52:17;30.00;;;17.73;;
3995;SDS011;2012;49.794;9.722;2023-02-11T13:54:50;27.70;;;18.23;;
3995;SDS011;2012;49.794;9.722;2023-02-11T13:59:52;34.50;;;18.93;;
3995;SDS011;2012;49.794;9.722;2023-02-11T14:16:17;27.10;;;17.17;;
3995;SDS011;2012;49.794;9.722;2023-02-11T14:19:02;31.80;;;19.53;;
3995;SDS011;2012;49.794;9.722;2023-02-11T14:21:30;32.30;;;21.00;;
3995;SDS011;2012;49.794;9.722;2023-02-11T14:29:32;30.10;;;18.53;;
3995;SDS011;2012;49.794;9.722;2023-02-11T14:35:11;27.33;;;17.30;;
3995;SDS011;2012;49.794;9.722;2023-02-11T14:37:52;27.60;;;17.83;;
3995;SDS011;2012;49.794;9.722;2023-02-11T14:43:26;28.33;;;17.30;;
3995;SDS011;2012;49.794;9.722;2023-02-11T14:46:22;32.60;;;17.17;;
3995;SDS011;2012;49.794;9.722;2023-02-11T14:48:51;29.73;;;19.90;;
3995;SDS011;2012;49.794;9.722;2023-02-11T14:53:52;30.40;;;18.83;;
3995;SDS011;2012;49.794;9.722;2023-02-11T14:56:32;26.90;;;18.40;;
3995;SDS011;2012;49.794;9.722;2023-02-11T14:59:02;27.90;;;17.37;;
3995;SDS011;2012;49.794;9.722;2023-02-11T15:01:30;24.27;;;17.20;;
3995;SDS011;2012;49.794;9.722;2023-02-11T15:04:02;31.00;;;18.57;;
3995;SDS011;2012;49.794;9.722;2023-02-11T15:09:12;32.87;;;19.80;;
3995;SDS011;2012;49.794;9.722;2023-02-11T15:11:40;34.67;;;18.07;;
3995;SDS011;2012;49.794;9.722;2023-02-11T15:14:10;35.80;;;20.30;;
3995;SDS011;2012;49.794;9.722;2023-02-11T15:16:46;35.60;;;21.20;;
3995;SDS011;2012;49.794;9.722;2023-02-11T15:19:17;33.77;;;20.20;;
3995;SDS011;2012;49.794;9.722;2023-02-11T15:21:56;35.43;;;20.37;;
3995;SDS011;2012;49.794;9.722;2023-02-11T15:24:27;27.47;;;18.60;;
3995;SDS011;2012;49.794;9.722;2023-02-11T15:27:12;36.00;;;19.43;;
3995;SDS011;2012;49.794;9.722;2023-02-11T15:29:43;37.10;;;19.93;;
3995;SDS011;2012;49.794;9.722;2023-02-11T15:32:13;36.73;;;20.37;;
3995;SDS011;2012;49.794;9.722;2023-02-11T15:34:42;35.70;;;20.83;;
3995;SDS011;2012;49.794;9.722;2023-02-11T15:40:07;31.57;;;20.07;;
3995;SDS011;2012;49.794;9.722;2023-02-11T15:42:55;34.93;;;21.70;;
3995;SDS011;2012;49.794;9.722;2023-02-11T15:48:10;36.53;;;23.40;;
3995;SDS011;2012;49.794;9.722;2023-02-11T15:50:38;45.53;;;22.03;;
3995;SDS011;2012;49.794;9.722;2023-02-11T15:56:01;33.90;;;20.10;;
3995;SDS011;2012;49.794;9.722;2023-02-11T15:58:39;35.10;;;20.60;;
3995;SDS011;2012;49.794;9.722;2023-02-11T16:01:08;31.93;;;19.70;;
3995;SDS011;2012;49.794;9.722;2023-02-11T16:03:36;40.87;;;21.17;;
3995;SDS011;2012;49.794;9.722;2023-02-11T16:08:58;32.23;;;20.50;;
3995;SDS011;2012;49.794;9.722;2023-02-11T16:11:30;33.07;;;20.30;;
3995;SDS011;2012;49.794;9.722;2023-02-11T16:16:49;31.80;;;20.37;;
3995;SDS011;2012;49.794;9.722;2023-02-11T16:19:18;36.00;;;21.87;;
3995;SDS011;2012;49.794;9.722;2023-02-11T16:21:50;38.27;;;20.73;;
3995;SDS011;2012;49.794;9.722;2023-02-11T16:24:24;36.00;;;21.97;;
3995;SDS011;2012;49.794;9.722;2023-02-11T16:26:58;40.37;;;23.00;;
3995;SDS011;2012;49.794;9.722;2023-02-11T16:29:28;36.87;;;24.20;;
3995;SDS011;2012;49.794;9.722;2023-02-11T16:32:07;42.53;;;21.67;;
3995;SDS011;2012;49.794;9.722;2023-02-11T16:34:40;35.53;;;21.70;;
3995;SDS011;2012;49.794;9.722;2023-02-11T16:37:07;34.27;;;21.33;;
3995;SDS011;2012;49.794;9.722;2023-02-11T16:39:34;36.60;;;21.30;;
3995;SDS011;2012;49.794;9.722;2023-02-11T16:42:01;36.87;;;20.63;;
3995;SDS011;2012;49.794;9.722;2023-02-11T16:44:32;33.80;;;20.53;;
3995;SDS011;2012;49.794;9.722;2023-02-11T16:47:00;31.60;;;19.97;;
3995;SDS011;2012;49.794;9.722;2023-02-11T16:49:31;36.50;;;20.20;;
3995;SDS011;2012;49.794;9.722;2023-02-11T16:52:04;30.83;;;19.07;;
3995;SDS011;2012;49.794;9.722;2023-02-11T16:54:33;32.40;;;19.70;;
3995;SDS011;2012;49.794;9.722;2023-02-11T16:57:00;30.47;;;19.23;;
3995;SDS011;2012;49.794;9.722;2023-02-11T16:59:31;32.20;;;19.60;;
3995;SDS011;2012;49.794;9.722;2023-02-11T17:01:57;33.30;;;19.30;;
3995;SDS011;2012;49.794;9.722;2023-02-11T17:04:26;38.57;;;20.00;;
3995;SDS011;2012;49.794;9.722;2023-02-11T17:06:55;34.13;;;20.67;;
3995;SDS011;2012;49.794;9.722;2023-02-11T17:09:24;35.50;;;20.63;;
3995;SDS011;2012;49.794;9.722;2023-02-11T17:11:56;45.07;;;25.53;;
3995;SDS011;2012;49.794;9.722;2023-02-11T17:14:22;49.20;;;26.37;;
3995;SDS011;2012;49.794;9.722;2023-02-11T17:16:49;43.77;;;24.80;;
3995;SDS011;2012;49.794;9.722;2023-02-11T17:19:17;63.67;;;32.57;;
3995;SDS011;2012;49.794;9.722;2023-02-11T17:21:45;59.93;;;29.67;;
3995;SDS011;2012;49.794;9.722;2023-02-11T17:24:14;46.37;;;26.50;;
3995;SDS011;2012;49.794;9.722;2023-02-11T17:26:41;35.83;;;22.00;;
3995;SDS011;2012;49.794;9.722;2023-02-11T17:29:10;39.20;;;22.43;;
3995;SDS011;2012;49.794;9.722;2023-02-11T17:31:39;30.60;;;20.17;;
3995;SDS011;2012;49.794;9.722;2023-02-11T17:34:06;34.30;;;21.00;;
3995;SDS011;2012;49.794;9.722;2023-02-11T17:36:33;33.97;;;20.63;;
3995;SDS011;2012;49.794;9.722;2023-02-11T17:39:00;42.07;;;22.40;;
3995;SDS011;2012;49.794;9.722;2023-02-11T17:41:27;31.67;;;19.87;;
3995;SDS011;2012;49.794;9.722;2023-02-11T17:43:57;34.03;;;20.30;;
3995;SDS011;2012;49.794;9.722;2023-02-11T17:46:25;33.03;;;20.23;;
3995;SDS011;2012;49.794;9.722;2023-02-11T17:48:57;36.33;;;19.90;;